Time;durP1;ratioP1;P1;durP2;ratioP2;P2;SDS_P1;SDS_P2;PMS_P1;PMS_P2;Temp;Humidity;BMP_temperature;BMP_pressure;BME280_temperature;BME280_humidity;BME280_pressure;Samples;Min_cycle;Max_cycle;Signal;HPM_P1;HPM_P2
2021/10/18 00:02:19;;;;;;;37.87;23.70;;;8.10;99.90;;;;;;5033484;28;20489;-67
2021/10/18 00:04:46;;;;;;;37.10;23.53;;;8.00;99.90;;;;;;5033291;28;20476;-67
2021/10/18 00:07:13;;;;;;;34.50;24.37;;;7.90;99.90;;;;;;5033233;28;20437;-67
2021/10/18 00:09:40;;;;;;;37.23;24.43;;;7.90;99.90;;;;;;5033120;28;20803;-67
2021/10/18 00:12:07;;;;;;;41.27;24.37;;;7.90;99.90;;;;;;5033419;28;20448;-67
2021/10/18 00:14:35;;;;;;;38.13;24.20;;;7.80;99.90;;;;;;5033005;28;20842;-67
2021/10/18 00:17:02;;;;;;;36.50;23.07;;;7.70;99.90;;;;;;5032678;28;20444;-67
2021/10/18 00:19:29;;;;;;;41.70;23.90;;;7.60;99.90;;;;;;5033123;28;20445;-67
2021/10/18 00:21:55;;;;;;;41.53;25.70;;;7.50;99.90;;;;;;5032915;28;20486;-66
2021/10/18 00:24:22;;;;;;;40.67;24.27;;;7.40;99.90;;;;;;5032985;28;20468;-67
2021/10/18 00:26:49;;;;;;;38.67;25.47;;;7.40;99.90;;;;;;5032378;28;20451;-66
2021/10/18 00:29:16;;;;;;;46.10;25.80;;;7.40;99.90;;;;;;5032528;28;20445;-67
2021/10/18 00:31:44;;;;;;;43.37;23.83;;;7.30;99.90;;;;;;5032744;28;20451;-67
2021/10/18 00:34:11;;;;;;;42.87;26.83;;;7.30;99.90;;;;;;5032642;28;20464;-67
2021/10/18 00:36:38;;;;;;;43.70;28.80;;;7.20;99.90;;;;;;5032238;28;20970;-67
2021/10/18 00:39:05;;;;;;;44.33;26.20;;;7.20;99.90;;;;;;5032816;28;20970;-67
2021/10/18 00:41:33;;;;;;;43.60;26.23;;;7.20;99.90;;;;;;5032443;28;20571;-67
2021/10/18 00:43:59;;;;;;;48.03;27.27;;;7.20;99.90;;;;;;5032172;28;20567;-67
2021/10/18 00:46:26;;;;;;;50.77;27.70;;;7.20;99.90;;;;;;5032214;28;20510;-67
2021/10/18 00:48:55;;;;;;;46.00;26.80;;;7.20;99.90;;;;;;5032373;28;20447;-67
2021/10/18 00:51:23;;;;;;;46.60;27.80;;;7.20;99.90;;;;;;5032408;28;21290;-67
2021/10/18 00:53:52;;;;;;;44.00;25.90;;;7.20;99.90;;;;;;5032123;28;20471;-67
2021/10/18 00:56:20;;;;;;;44.90;27.70;;;7.20;99.90;;;;;;5032022;28;20555;-67
2021/10/18 00:58:50;;;;;;;49.90;27.50;;;7.20;99.90;;;;;;5032401;28;20818;-67
2021/10/18 01:01:17;;;;;;;49.17;25.87;;;7.20;99.90;;;;;;5032415;28;20852;-67
2021/10/18 01:03:44;;;;;;;54.50;27.57;;;7.20;99.90;;;;;;5031966;28;20476;-67
2021/10/18 01:06:13;;;;;;;65.53;28.70;;;7.20;99.90;;;;;;5032172;28;20445;-67
2021/10/18 01:08:40;;;;;;;62.00;30.23;;;7.20;99.90;;;;;;5031738;28;20834;-67
2021/10/18 01:11:07;;;;;;;49.87;26.20;;;7.20;99.90;;;;;;5031974;28;20441;-67
2021/10/18 01:13:34;;;;;;;57.00;28.63;;;7.20;99.90;;;;;;5032234;28;20468;-67
2021/10/18 01:16:01;;;;;;;54.70;27.97;;;7.20;99.90;;;;;;5031890;28;20447;-67
2021/10/18 01:18:28;;;;;;;55.77;29.90;;;7.20;99.90;;;;;;5031867;28;20459;-67
2021/10/18 01:20:57;;;;;;;58.90;28.00;;;7.20;99.90;;;;;;5031866;28;20473;-67
2021/10/18 01:23:23;;;;;;;61.97;31.93;;;7.20;99.90;;;;;;5031886;28;20471;-68
2021/10/18 01:25:50;;;;;;;60.77;28.37;;;7.20;99.90;;;;;;5031847;28;20433;-68
2021/10/18 01:28:17;;;;;;;56.10;26.10;;;7.20;99.90;;;;;;5031571;28;20447;-68
2021/10/18 01:30:44;;;;;;;50.13;27.87;;;7.20;99.90;;;;;;5031749;28;20486;-68
2021/10/18 01:33:11;;;;;;;52.43;24.70;;;7.20;99.90;;;;;;5031961;28;20436;-68
2021/10/18 01:35:39;;;;;;;52.13;26.37;;;7.20;99.90;;;;;;5031580;28;20451;-68
2021/10/18 01:38:07;;;;;;;56.73;27.83;;;7.20;99.90;;;;;;5031967;28;20447;-68
2021/10/18 01:40:34;;;;;;;55.70;29.73;;;7.10;99.90;;;;;;5031502;28;20994;-68
2021/10/18 01:43:01;;;;;;;47.87;25.90;;;7.10;99.90;;;;;;5031205;28;20455;-68
2021/10/18 01:45:28;;;;;;;49.07;26.97;;;7.10;99.90;;;;;;5030977;28;20439;-68
2021/10/18 01:47:55;;;;;;;49.23;29.07;;;7.10;99.90;;;;;;5030310;28;20456;-68
2021/10/18 01:50:24;;;;;;;47.03;24.73;;;7.10;99.90;;;;;;5030593;28;20445;-68
2021/10/18 01:52:52;;;;;;;52.23;27.90;;;7.10;99.90;;;;;;5030543;28;20443;-68
2021/10/18 01:55:21;;;;;;;45.90;25.70;;;7.20;99.90;;;;;;5030432;28;20441;-68
2021/10/18 01:57:50;;;;;;;45.23;25.27;;;7.20;99.90;;;;;;5029850;28;20445;-68
2021/10/18 02:00:17;;;;;;;47.00;25.30;;;7.30;99.90;;;;;;5030363;28;20942;-68
2021/10/18 02:02:46;;;;;;;44.97;25.67;;;7.30;99.90;;;;;;5030149;28;20481;-68
2021/10/18 02:05:13;;;;;;;36.30;21.30;;;7.30;99.90;;;;;;5030419;28;20568;-68
2021/10/18 02:07:42;;;;;;;38.83;23.40;;;7.20;99.90;;;;;;5029760;28;20943;-67
2021/10/18 02:10:09;;;;;;;34.93;21.30;;;7.10;99.90;;;;;;5030387;28;20437;-68
2021/10/18 02:12:38;;;;;;;39.47;21.53;;;7.20;99.90;;;;;;5029985;28;20437;-68
2021/10/18 02:15:06;;;;;;;36.60;22.60;;;7.00;99.90;;;;;;5030049;28;20469;-68
2021/10/18 02:17:32;;;;;;;34.83;21.77;;;7.00;99.90;;;;;;5028980;28;20443;-68
2021/10/18 02:19:59;;;;;;;43.37;23.03;;;6.90;99.90;;;;;;5030217;28;20487;-68
2021/10/18 02:22:26;;;;;;;38.27;22.73;;;6.90;99.90;;;;;;5030087;28;20480;-68
2021/10/18 02:24:53;;;;;;;32.70;19.87;;;6.80;99.90;;;;;;5029766;28;20468;-68
2021/10/18 02:27:20;;;;;;;33.53;20.30;;;6.60;99.90;;;;;;5029480;28;20448;-68
2021/10/18 02:29:48;;;;;;;31.10;20.40;;;6.50;99.90;;;;;;5029653;28;20447;-68
2021/10/18 02:32:15;;;;;;;31.93;18.40;;;6.50;99.90;;;;;;5029759;28;20441;-68
2021/10/18 02:34:41;;;;;;;31.17;18.60;;;6.40;99.90;;;;;;5029686;28;20460;-68
2021/10/18 02:37:08;;;;;;;34.13;20.23;;;6.30;99.90;;;;;;5029678;28;20528;-68
2021/10/18 02:39:35;;;;;;;34.20;20.00;;;6.30;99.90;;;;;;5029500;28;20444;-68
2021/10/18 02:44:43;;;;;;;29.70;20.50;;;6.30;99.90;;;;;;5087446;28;20563;-67
2021/10/18 02:47:09;;;;;;;34.10;19.87;;;6.30;99.90;;;;;;5067631;28;20435;-67
2021/10/18 02:49:37;;;;;;;31.77;20.50;;;6.30;99.90;;;;;;5067323;28;20444;-68
2021/10/18 02:52:04;;;;;;;37.57;22.17;;;6.30;99.90;;;;;;5067667;28;20449;-67
2021/10/18 02:54:31;;;;;;;33.23;21.33;;;6.20;99.90;;;;;;5067351;28;20542;-67
2021/10/18 02:56:58;;;;;;;40.13;21.97;;;6.20;99.90;;;;;;5068050;28;20442;-67
2021/10/18 02:59:25;;;;;;;36.03;21.13;;;6.30;99.90;;;;;;5067409;28;20526;-67
2021/10/18 03:01:53;;;;;;;39.77;22.70;;;6.30;99.90;;;;;;5066766;28;20441;-67
2021/10/18 03:04:20;;;;;;;40.40;23.40;;;6.40;99.90;;;;;;5067112;28;20487;-68
2021/10/18 03:06:47;;;;;;;42.10;23.67;;;6.50;99.90;;;;;;5066867;28;20846;-68
2021/10/18 03:09:14;;;;;;;45.93;24.83;;;6.60;99.90;;;;;;5067128;28;20441;-67
2021/10/18 03:11:41;;;;;;;43.53;24.00;;;6.60;99.90;;;;;;5066656;28;20525;-67
2021/10/18 03:14:07;;;;;;;42.80;23.93;;;6.60;99.90;;;;;;5066934;28;20455;-67
2021/10/18 03:16:34;;;;;;;47.47;23.20;;;6.70;99.90;;;;;;5066645;28;20445;-67
2021/10/18 03:19:03;;;;;;;37.40;21.37;;;6.80;99.90;;;;;;5066749;28;20450;-67
2021/10/18 03:21:29;;;;;;;37.20;20.50;;;6.90;99.90;;;;;;5066920;28;20439;-66
2021/10/18 03:23:56;;;;;;;43.13;25.60;;;7.00;99.90;;;;;;5066543;28;20507;-67
2021/10/18 03:26:23;;;;;;;44.00;26.20;;;7.10;99.90;;;;;;5066257;28;20435;-67
2021/10/18 03:28:50;;;;;;;32.93;20.47;;;7.10;99.90;;;;;;5066650;28;20447;-67
2021/10/18 03:31:17;;;;;;;34.37;20.03;;;7.20;99.90;;;;;;5066803;28;20435;-67
2021/10/18 03:33:43;;;;;;;28.20;18.30;;;7.20;99.90;;;;;;5066494;28;20448;-67
2021/10/18 03:36:12;;;;;;;31.77;20.20;;;7.30;99.90;;;;;;5066346;28;20439;-67
2021/10/18 03:38:38;;;;;;;37.07;20.70;;;7.30;99.90;;;;;;5065901;28;20520;-67
2021/10/18 03:41:06;;;;;;;38.73;22.47;;;7.30;99.90;;;;;;5066594;28;20913;-67
2021/10/18 03:43:32;;;;;;;26.77;18.93;;;7.30;99.90;;;;;;5066059;28;20478;-67
2021/10/18 03:45:59;;;;;;;33.50;19.80;;;7.40;99.90;;;;;;5066292;28;20439;-67
2021/10/18 03:48:26;;;;;;;34.33;21.47;;;7.40;99.90;;;;;;5065692;28;20886;-67
2021/10/18 03:50:53;;;;;;;35.07;22.27;;;7.40;99.90;;;;;;5066317;28;20435;-67
2021/10/18 03:53:21;;;;;;;32.30;21.10;;;7.40;99.90;;;;;;5065773;28;20560;-67
2021/10/18 03:55:48;;;;;;;33.90;22.70;;;7.50;99.90;;;;;;5054299;28;20446;-67
2021/10/18 03:58:15;;;;;;;40.50;25.23;;;7.50;99.90;;;;;;5052781;28;20546;-67
2021/10/18 04:00:42;;;;;;;39.13;23.03;;;7.60;99.90;;;;;;5052791;28;20436;-67
2021/10/18 04:03:08;;;;;;;42.47;24.70;;;7.60;99.90;;;;;;5052554;28;20471;-67
2021/10/18 04:05:35;;;;;;;45.30;23.90;;;7.60;99.90;;;;;;5052830;28;20444;-67
2021/10/18 04:08:02;;;;;;;43.53;24.80;;;7.60;99.90;;;;;;5052256;28;20431;-67
2021/10/18 04:10:32;;;;;;;40.13;23.37;;;7.60;99.90;;;;;;5052782;28;20860;-67
2021/10/18 04:12:59;;;;;;;44.33;23.77;;;7.60;99.90;;;;;;5052689;28;20482;-67
2021/10/18 04:15:26;;;;;;;42.37;22.30;;;7.70;99.90;;;;;;5052946;28;20444;-67
2021/10/18 04:17:53;;;;;;;38.00;24.13;;;7.80;99.90;;;;;;5052361;28;20944;-67
2021/10/18 04:20:20;;;;;;;42.50;23.10;;;7.70;99.90;;;;;;5052202;28;20809;-67
2021/10/18 04:22:47;;;;;;;41.70;24.00;;;7.80;99.90;;;;;;5052472;28;20436;-67
2021/10/18 04:25:14;;;;;;;43.50;24.10;;;7.80;99.90;;;;;;5052362;28;20487;-67
2021/10/18 04:27:43;;;;;;;43.23;22.20;;;7.80;99.90;;;;;;5052221;28;20448;-66
2021/10/18 04:30:11;;;;;;;41.27;23.20;;;7.80;99.90;;;;;;5052383;28;20444;-66
2021/10/18 04:32:37;;;;;;;38.97;22.33;;;7.90;99.90;;;;;;5047783;28;20436;-65
2021/10/18 04:35:05;;;;;;;45.57;22.10;;;7.90;99.90;;;;;;5051393;28;21274;-69
2021/10/18 04:37:32;;;;;;;36.20;21.30;;;7.90;99.90;;;;;;5050548;28;20444;-73
2021/10/18 04:39:59;;;;;;;38.90;23.87;;;7.90;99.90;;;;;;5051693;28;20523;-67
2021/10/18 04:42:26;;;;;;;38.47;22.10;;;7.90;99.90;;;;;;5051384;28;20944;-67
2021/10/18 04:44:54;;;;;;;41.37;23.93;;;7.80;99.90;;;;;;5051836;28;20475;-65
2021/10/18 04:47:21;;;;;;;38.23;22.50;;;7.90;99.90;;;;;;5051271;28;20941;-65
2021/10/18 04:49:48;;;;;;;37.53;21.13;;;7.90;99.90;;;;;;5051364;28;20459;-66
2021/10/18 04:52:14;;;;;;;37.70;23.10;;;8.00;99.90;;;;;;5051845;28;20455;-65
2021/10/18 04:54:41;;;;;;;39.67;22.13;;;8.00;99.90;;;;;;5051968;28;20459;-65
2021/10/18 04:57:08;;;;;;;37.83;22.27;;;8.10;99.90;;;;;;5049550;28;20428;-66
2021/10/18 04:59:35;;;;;;;39.23;22.60;;;8.10;99.90;;;;;;5051601;28;20446;-66
2021/10/18 05:02:04;;;;;;;35.53;22.33;;;8.10;99.90;;;;;;5051846;28;20443;-65
2021/10/18 05:04:31;;;;;;;32.50;20.87;;;8.10;99.90;;;;;;5051882;28;20494;-65
2021/10/18 05:06:57;;;;;;;43.00;24.37;;;8.10;99.90;;;;;;5050613;28;20462;-66
2021/10/18 05:09:25;;;;;;;39.57;22.27;;;8.20;99.90;;;;;;5048534;28;20437;-66
2021/10/18 05:11:51;;;;;;;39.23;22.10;;;8.10;99.90;;;;;;5051277;28;20440;-65
2021/10/18 05:14:18;;;;;;;34.27;19.27;;;8.10;99.90;;;;;;5051500;28;20901;-66
2021/10/18 05:16:45;;;;;;;33.47;19.80;;;8.20;99.90;;;;;;5050967;28;20448;-66
2021/10/18 05:19:13;;;;;;;42.73;23.20;;;8.20;99.90;;;;;;5050970;28;20432;-65
2021/10/18 05:21:40;;;;;;;38.30;21.80;;;8.30;99.90;;;;;;5051209;28;20440;-65
2021/10/18 05:24:07;;;;;;;42.57;23.70;;;8.30;99.90;;;;;;5050582;28;20479;-66
2021/10/18 05:26:34;;;;;;;37.20;22.37;;;8.30;99.90;;;;;;5039595;28;20444;-65
2021/10/18 05:29:02;;;;;;;35.87;20.90;;;8.20;99.90;;;;;;5046291;28;20447;-65
2021/10/18 05:31:29;;;;;;;31.53;20.77;;;8.20;99.90;;;;;;5050699;28;20432;-65
2021/10/18 05:33:55;;;;;;;35.07;21.80;;;8.20;99.90;;;;;;5050717;28;20460;-65
2021/10/18 05:36:24;;;;;;;38.27;23.53;;;8.10;99.90;;;;;;5040723;28;20450;-65
2021/10/18 05:38:50;;;;;;;32.00;20.47;;;8.10;99.90;;;;;;5040553;28;20445;-65
2021/10/18 05:41:17;;;;;;;39.10;23.40;;;8.00;99.90;;;;;;5048677;28;20458;-66
2021/10/18 05:43:44;;;;;;;45.00;24.83;;;8.00;99.90;;;;;;5050056;28;20841;-66
2021/10/18 05:46:11;;;;;;;39.77;23.60;;;8.10;99.90;;;;;;5040378;28;20443;-65
2021/10/18 05:48:38;;;;;;;38.17;22.77;;;8.10;99.90;;;;;;5037522;28;20449;-65
2021/10/18 05:51:04;;;;;;;39.63;23.00;;;8.10;99.90;;;;;;5036070;28;20449;-65
2021/10/18 05:53:33;;;;;;;39.23;23.47;;;8.10;99.90;;;;;;5037628;28;20476;-65
2021/10/18 05:56:00;;;;;;;45.60;22.87;;;8.10;99.90;;;;;;5048222;28;20582;-65
2021/10/18 05:58:27;;;;;;;37.97;23.40;;;8.20;99.90;;;;;;5050014;28;21010;-65
2021/10/18 06:00:54;;;;;;;45.40;25.60;;;8.20;99.90;;;;;;5050230;28;20444;-65
2021/10/18 06:03:20;;;;;;;44.10;23.43;;;8.30;99.90;;;;;;5047156;28;20973;-65
2021/10/18 06:05:47;;;;;;;40.50;24.57;;;8.40;99.90;;;;;;5030212;28;20432;-65
2021/10/18 06:08:16;;;;;;;39.17;23.50;;;8.40;99.90;;;;;;5029757;28;21010;-65
2021/10/18 06:10:44;;;;;;;41.63;24.10;;;8.50;99.90;;;;;;5030138;28;20941;-65
2021/10/18 06:13:12;;;;;;;43.27;24.40;;;8.50;99.90;;;;;;5030088;28;20437;-64
2021/10/18 06:15:39;;;;;;;34.40;22.40;;;8.50;99.90;;;;;;5030094;28;20444;-64
2021/10/18 06:18:11;;;;;;;35.73;22.37;;;8.60;99.90;;;;;;5034070;28;20519;-64
2021/10/18 06:20:39;;;;;;;35.57;21.87;;;8.60;99.90;;;;;;5049873;28;20505;-64
2021/10/18 06:23:06;;;;;;;36.50;21.93;;;8.70;99.90;;;;;;5049688;28;20435;-64
2021/10/18 06:25:33;;;;;;;38.67;23.30;;;8.70;99.90;;;;;;5049656;28;20535;-62
2021/10/18 06:28:02;;;;;;;36.90;22.97;;;8.80;99.90;;;;;;5049615;28;20452;-62
2021/10/18 06:30:29;;;;;;;38.50;22.90;;;8.80;99.90;;;;;;5049782;28;20442;-62
2021/10/18 06:32:56;;;;;;;34.70;21.13;;;8.90;99.90;;;;;;5049494;28;20532;-64
2021/10/18 06:35:23;;;;;;;37.37;23.00;;;8.90;99.90;;;;;;5046653;28;20472;-64
2021/10/18 06:37:50;;;;;;;38.37;21.50;;;9.00;99.90;;;;;;5049543;28;20859;-64
2021/10/18 06:40:17;;;;;;;33.67;22.17;;;9.00;99.90;;;;;;5049741;28;21020;-64
2021/10/18 06:42:44;;;;;;;34.03;22.60;;;9.10;99.90;;;;;;5049894;28;20448;-64
2021/10/18 06:45:12;;;;;;;35.50;22.57;;;9.20;99.90;;;;;;5049919;28;20480;-64
2021/10/18 06:47:39;;;;;;;33.70;22.03;;;9.30;99.90;;;;;;5049745;28;20446;-64
2021/10/18 06:50:08;;;;;;;36.77;22.17;;;9.20;99.90;;;;;;5050172;28;20440;-64
2021/10/18 06:52:36;;;;;;;33.93;22.33;;;9.30;99.90;;;;;;5050025;28;20931;-65
2021/10/18 06:55:05;;;;;;;33.00;22.47;;;9.30;99.90;;;;;;5050112;28;20460;-64
2021/10/18 06:57:33;;;;;;;38.40;22.20;;;9.40;99.90;;;;;;5049622;28;20443;-64
2021/10/18 07:00:00;;;;;;;33.00;21.53;;;9.40;99.90;;;;;;5049758;28;20902;-64
2021/10/18 07:02:28;;;;;;;35.80;22.87;;;9.50;99.90;;;;;;5050027;28;20438;-64
2021/10/18 07:04:55;;;;;;;36.40;22.17;;;9.40;99.90;;;;;;5049758;28;20579;-64
2021/10/18 07:07:22;;;;;;;36.13;21.77;;;9.40;99.90;;;;;;5049214;28;20922;-64
2021/10/18 07:09:49;;;;;;;35.80;22.57;;;9.60;99.90;;;;;;5049670;28;20477;-64
2021/10/18 07:12:15;;;;;;;32.73;21.37;;;9.70;99.90;;;;;;5049563;28;20440;-64
2021/10/18 07:14:42;;;;;;;35.37;22.27;;;9.80;99.90;;;;;;5049384;28;20460;-64
2021/10/18 07:17:09;;;;;;;34.63;21.50;;;10.00;99.90;;;;;;5049449;28;20813;-64
2021/10/18 07:19:37;;;;;;;33.90;21.97;;;10.10;99.90;;;;;;5049494;28;20510;-64
2021/10/18 07:22:04;;;;;;;34.10;20.63;;;10.20;99.90;;;;;;5049523;28;20438;-64
2021/10/18 07:24:31;;;;;;;32.97;20.50;;;10.20;99.90;;;;;;5049216;28;20476;-64
2021/10/18 07:26:58;;;;;;;33.13;21.63;;;10.40;99.90;;;;;;5048983;28;20432;-64
2021/10/18 07:29:24;;;;;;;31.70;20.73;;;10.50;99.90;;;;;;5049935;28;20973;-64
2021/10/18 07:31:51;;;;;;;33.70;20.57;;;10.60;99.90;;;;;;5053375;28;20535;-64
2021/10/18 07:34:18;;;;;;;34.03;23.10;;;10.70;99.90;;;;;;5053118;28;20452;-64
2021/10/18 07:36:49;;;;;;;34.80;22.93;;;10.70;99.90;;;;;;5052662;28;20456;-64
2021/10/18 07:39:17;;;;;;;27.33;20.77;;;10.80;99.90;;;;;;5053009;28;20535;-64
2021/10/18 07:41:45;;;;;;;30.47;22.20;;;10.90;99.90;;;;;;5052890;28;20446;-64
2021/10/18 07:44:11;;;;;;;31.20;20.37;;;11.00;99.90;;;;;;5052543;28;20479;-64
2021/10/18 07:46:38;;;;;;;30.20;21.03;;;11.10;99.90;;;;;;5052650;28;20444;-64
2021/10/18 07:49:05;;;;;;;26.83;19.67;;;11.20;99.90;;;;;;5052879;28;20474;-64
2021/10/18 07:51:32;;;;;;;29.90;19.80;;;11.30;99.90;;;;;;5052901;28;20447;-64
2021/10/18 07:54:02;;;;;;;28.60;19.90;;;11.30;99.90;;;;;;5052557;28;20452;-64
2021/10/18 07:56:28;;;;;;;24.67;18.57;;;11.40;99.90;;;;;;5052306;28;20783;-65
2021/10/18 07:58:55;;;;;;;29.40;20.60;;;11.30;99.90;;;;;;5052780;28;20447;-65
2021/10/18 08:01:22;;;;;;;27.03;19.07;;;11.50;99.90;;;;;;5052530;28;20438;-64
2021/10/18 08:03:49;;;;;;;24.43;19.97;;;11.60;99.90;;;;;;5052497;28;20548;-64
2021/10/18 08:06:16;;;;;;;26.77;19.40;;;11.70;99.90;;;;;;5052190;28;20484;-64
2021/10/18 08:08:48;;;;;;;23.73;18.00;;;11.80;99.90;;;;;;5052268;28;20448;-65
2021/10/18 08:11:16;;;;;;;20.03;16.10;;;11.90;99.90;;;;;;5052636;28;20479;-65
2021/10/18 08:13:43;;;;;;;24.53;18.27;;;11.90;99.90;;;;;;5052352;28;20464;-65
2021/10/18 08:16:10;;;;;;;24.50;18.57;;;12.00;99.90;;;;;;5052333;28;20814;-64
2021/10/18 08:18:38;;;;;;;24.67;19.37;;;12.00;99.90;;;;;;5052132;28;20446;-65
2021/10/18 08:21:05;;;;;;;23.97;19.40;;;12.10;99.90;;;;;;5052272;28;20521;-64
2021/10/18 08:23:34;;;;;;;22.40;18.70;;;12.10;99.90;;;;;;5052272;28;20867;-64
2021/10/18 08:26:01;;;;;;;21.50;17.13;;;12.00;99.90;;;;;;5052166;28;20475;-64
2021/10/18 08:28:29;;;;;;;20.43;18.20;;;11.90;99.90;;;;;;5051891;28;20439;-65
2021/10/18 08:30:57;;;;;;;21.07;18.03;;;11.90;99.90;;;;;;5051920;28;20447;-64
2021/10/18 08:33:24;;;;;;;20.43;17.63;;;11.90;99.90;;;;;;5051892;28;21040;-64
2021/10/18 08:35:51;;;;;;;22.37;19.40;;;12.00;99.90;;;;;;5051754;28;20432;-64
2021/10/18 08:38:21;;;;;;;23.37;18.27;;;12.00;99.90;;;;;;5051815;28;20442;-65
2021/10/18 08:41:00;;;;;;;20.33;17.70;;;12.00;99.90;;;;;;5051837;28;20534;-64
2021/10/18 08:44:14;;;;;;;20.17;17.00;;;12.10;99.90;;;;;;5052155;28;20835;-64
2021/10/18 08:46:24;;;;;;;22.00;18.20;;;12.10;99.90;;;;;;5051202;28;20483;-64
2021/10/18 08:48:53;;;;;;;24.80;20.37;;;12.00;99.90;;;;;;5051873;28;20527;-65
2021/10/18 08:51:20;;;;;;;23.27;18.33;;;11.90;99.90;;;;;;5051847;28;20530;-64
2021/10/18 08:53:48;;;;;;;23.67;20.07;;;11.80;99.90;;;;;;5051653;28;20459;-64
2021/10/18 08:56:15;;;;;;;23.87;19.83;;;11.70;99.90;;;;;;5051413;28;20440;-63
2021/10/18 08:58:43;;;;;;;23.70;19.83;;;11.70;99.90;;;;;;5051318;28;20461;-65
2021/10/18 09:01:10;;;;;;;25.00;20.50;;;11.70;99.90;;;;;;5051564;28;20440;-64
2021/10/18 09:03:37;;;;;;;30.17;23.93;;;11.80;99.90;;;;;;5051473;28;20460;-64
2021/10/18 09:06:12;;;;;;;26.10;21.00;;;11.80;99.90;;;;;;5051446;28;20482;-64
2021/10/18 09:08:41;;;;;;;25.23;20.77;;;11.90;99.90;;;;;;5051204;28;21004;-64
2021/10/18 09:11:10;;;;;;;26.47;19.40;;;11.90;99.90;;;;;;5051271;28;20806;-65
2021/10/18 09:13:43;;;;;;;25.70;20.53;;;12.00;99.90;;;;;;5051417;28;20836;-64
2021/10/18 09:16:12;;;;;;;25.63;20.30;;;12.00;99.90;;;;;;5051078;28;20466;-64
2021/10/18 09:18:40;;;;;;;36.30;22.77;;;11.90;99.90;;;;;;5050877;28;20807;-65
2021/10/18 09:21:07;;;;;;;26.07;21.33;;;11.90;99.90;;;;;;5051272;28;20447;-64
2021/10/18 09:23:37;;;;;;;25.43;20.80;;;12.00;99.90;;;;;;5051150;28;20460;-64
2021/10/18 09:26:06;;;;;;;23.23;18.77;;;12.20;99.90;;;;;;5050988;28;20480;-64
2021/10/18 09:28:34;;;;;;;24.87;18.87;;;12.30;99.90;;;;;;5051277;28;20446;-65
2021/10/18 09:31:01;;;;;;;24.10;19.30;;;12.30;99.90;;;;;;5051352;28;20445;-65
2021/10/18 09:33:36;;;;;;;26.77;20.43;;;12.50;99.90;;;;;;5051215;28;20456;-65
2021/10/18 09:36:07;;;;;;;22.53;17.87;;;12.40;99.90;;;;;;5051314;28;20481;-64
2021/10/18 09:38:34;;;;;;;22.57;19.00;;;12.50;99.90;;;;;;5051209;28;20498;-64
2021/10/18 09:41:02;;;;;;;22.57;17.80;;;12.50;99.90;;;;;;5050957;28;20440;-64
2021/10/18 09:43:33;;;;;;;23.87;20.13;;;12.50;99.90;;;;;;5050741;28;20474;-64
2021/10/18 09:46:12;;;;;;;25.40;18.97;;;12.30;99.90;;;;;;5050729;28;20476;-64
2021/10/18 10:51:18;;;;;;;24.17;19.37;;;14.40;99.90;;;;;;5049806;28;20419;-64
2021/10/18 10:53:52;;;;;;;23.07;19.20;;;14.40;99.90;;;;;;5049838;28;20464;-65
2021/10/18 10:56:31;;;;;;;23.63;20.00;;;14.50;99.90;;;;;;5049449;28;20490;-64
2021/10/18 10:59:12;;;;;;;23.47;19.20;;;14.70;99.90;;;;;;5049703;28;20436;-65
2021/10/18 11:01:48;;;;;;;21.10;18.57;;;14.80;99.90;;;;;;5049457;28;20436;-65
2021/10/18 11:04:40;;;;;;;28.70;20.20;;;14.60;99.90;;;;;;5050054;28;20460;-65
2021/10/18 11:07:09;;;;;;;23.30;17.70;;;14.50;99.90;;;;;;5053388;28;20435;-65
2021/10/18 11:09:39;;;;;;;24.27;19.47;;;14.60;99.90;;;;;;5053616;28;20838;-64
2021/10/18 11:12:08;;;;;;;23.53;19.13;;;14.90;99.90;;;;;;5053416;28;20428;-65
2021/10/18 11:14:35;;;;;;;20.27;17.70;;;15.10;99.90;;;;;;5053420;28;20456;-65
2021/10/18 11:17:02;;;;;;;20.50;17.87;;;15.40;99.90;;;;;;5053370;28;20446;-65
2021/10/18 11:19:28;;;;;;;19.07;17.00;;;15.70;99.90;;;;;;5053649;28;20439;-64
2021/10/18 11:21:57;;;;;;;20.43;18.30;;;16.10;99.90;;;;;;5053393;28;20447;-65
2021/10/18 11:24:24;;;;;;;21.57;18.13;;;17.40;99.90;;;;;;5053187;28;20451;-65
2021/10/18 11:26:55;;;;;;;20.40;18.03;;;18.80;99.90;;;;;;5052794;28;20482;-65
2021/10/18 11:29:31;;;;;;;21.10;17.57;;;19.90;99.90;;;;;;5053347;28;20432;-65
2021/10/18 11:32:07;;;;;;;18.37;16.50;;;20.80;99.90;;;;;;5053344;28;20439;-65
2021/10/18 11:34:34;;;;;;;20.00;18.00;;;21.30;99.90;;;;;;5053164;28;20513;-65
2021/10/18 11:37:01;;;;;;;20.40;18.30;;;21.50;99.70;;;;;;5052625;28;20443;-65
2021/10/18 11:39:29;;;;;;;18.80;16.83;;;22.10;98.90;;;;;;5050823;28;20436;-65
2021/10/18 11:42:10;;;;;;;18.97;17.07;;;23.00;98.30;;;;;;5050798;28;20437;-65
2021/10/18 11:44:49;;;;;;;22.43;20.10;;;22.90;96.80;;;;;;5047019;28;20844;-65
2021/10/18 11:47:33;;;;;;;20.37;18.27;;;21.70;97.00;;;;;;5037805;28;20478;-65
2021/10/18 11:50:16;;;;;;;21.30;19.20;;;20.70;99.60;;;;;;5046950;28;20501;-65
2021/10/18 11:52:47;;;;;;;19.00;17.10;;;21.20;99.30;;;;;;5044301;28;20528;-65
2021/10/18 11:55:15;;;;;;;18.33;16.43;;;22.60;97.10;;;;;;5042936;28;20452;-65
2021/10/18 11:57:47;;;;;;;18.57;16.70;;;23.30;95.30;;;;;;5041836;28;20925;-65
2021/10/18 12:00:20;;;;;;;19.90;17.60;;;24.00;94.20;;;;;;5041717;28;20439;-65
2021/10/18 12:02:47;;;;;;;17.60;15.73;;;24.50;93.50;;;;;;5041371;28;20439;-65
2021/10/18 12:05:15;;;;;;;17.90;16.03;;;24.90;91.00;;;;;;5037792;28;20452;-65
2021/10/18 12:07:44;;;;;;;18.30;16.27;;;24.50;91.20;;;;;;5042158;28;20956;-64
2021/10/18 12:10:35;;;;;;;17.07;15.23;;;24.50;91.40;;;;;;5041104;28;20429;-65
2021/10/18 12:13:25;;;;;;;16.20;14.70;;;24.80;91.30;;;;;;5032596;28;20433;-65
2021/10/18 12:15:57;;;;;;;18.90;16.83;;;23.90;91.50;;;;;;5033819;28;20432;-65
2021/10/18 12:18:26;;;;;;;20.60;18.60;;;22.40;92.70;;;;;;5051532;28;20439;-65
2021/10/18 12:20:55;;;;;;;20.30;18.13;;;20.70;94.70;;;;;;5052135;28;20934;-65
2021/10/18 12:23:28;;;;;;;20.10;18.07;;;18.90;97.10;;;;;;5052191;28;20448;-65
2021/10/18 12:26:11;;;;;;;19.30;17.30;;;17.80;99.10;;;;;;5052142;28;20562;-65
2021/10/18 12:28:45;;;;;;;19.17;16.40;;;16.20;99.90;;;;;;5051977;28;20824;-65
2021/10/18 12:31:37;;;;;;;18.77;16.33;;;15.80;99.90;;;;;;5051930;28;20432;-65
2021/10/18 12:34:16;;;;;;;19.40;17.20;;;15.30;99.90;;;;;;5037543;28;20463;-65
2021/10/18 12:36:51;;;;;;;20.93;18.20;;;15.40;99.90;;;;;;5035399;28;20424;-65
2021/10/18 12:39:38;;;;;;;19.77;15.20;;;15.40;99.90;;;;;;5051942;28;20432;-65
2021/10/18 12:42:06;;;;;;;17.93;16.03;;;15.40;99.90;;;;;;5051851;28;20519;-64
2021/10/18 12:44:36;;;;;;;19.10;16.97;;;15.40;99.90;;;;;;5051756;28;20459;-65
2021/10/18 12:47:03;;;;;;;20.33;17.37;;;15.30;99.90;;;;;;5044681;28;20502;-65
2021/10/18 12:49:32;;;;;;;18.87;16.57;;;15.60;99.90;;;;;;5044581;28;21109;-65
2021/10/18 12:52:02;;;;;;;19.50;17.50;;;15.40;99.90;;;;;;5051337;28;20432;-66
2021/10/18 12:54:37;;;;;;;21.23;17.60;;;15.20;99.90;;;;;;5050826;28;20456;-65
2021/10/18 12:57:06;;;;;;;19.33;16.40;;;15.30;99.90;;;;;;5051070;28;20423;-65
2021/10/18 12:59:36;;;;;;;20.20;16.80;;;15.40;99.90;;;;;;5051022;28;20967;-65
2021/10/18 13:02:26;;;;;;;18.70;15.00;;;15.50;99.90;;;;;;5051360;28;20800;-64
2021/10/18 13:05:15;;;;;;;18.60;16.10;;;15.70;99.90;;;;;;5035892;28;20976;-64
2021/10/18 13:07:50;;;;;;;17.90;16.00;;;15.90;99.90;;;;;;5041961;28;21044;-65
2021/10/18 13:10:17;;;;;;;19.73;16.00;;;15.90;99.90;;;;;;5047806;28;20490;-64
2021/10/18 13:12:45;;;;;;;18.33;16.43;;;15.90;99.90;;;;;;5051145;28;20463;-64
2021/10/18 13:15:15;;;;;;;19.80;16.00;;;15.40;99.90;;;;;;5050836;28;20452;-64
2021/10/18 13:17:43;;;;;;;17.13;15.33;;;15.00;99.90;;;;;;5050796;28;20450;-64
2021/10/18 13:20:11;;;;;;;18.20;14.70;;;14.90;99.90;;;;;;5051072;28;20440;-64
2021/10/18 13:22:39;;;;;;;22.50;15.30;;;15.00;99.90;;;;;;5050801;28;20435;-64
2021/10/18 13:25:06;;;;;;;18.90;16.80;;;15.20;99.90;;;;;;5050973;28;20558;-65
2021/10/18 13:27:33;;;;;;;18.63;15.80;;;15.20;99.90;;;;;;5049392;28;20472;-64
2021/10/18 13:30:00;;;;;;;18.80;15.97;;;15.10;99.90;;;;;;5050680;28;20444;-64
2021/10/18 13:32:28;;;;;;;17.40;15.60;;;15.30;99.90;;;;;;5050777;28;20825;-64
2021/10/18 13:34:56;;;;;;;20.27;16.40;;;15.30;99.90;;;;;;5050120;28;20460;-65
2021/10/18 13:37:24;;;;;;;21.77;16.27;;;15.30;99.90;;;;;;5048734;28;20464;-65
2021/10/18 13:39:52;;;;;;;20.90;16.10;;;15.30;99.90;;;;;;5049465;28;20956;-65
2021/10/18 13:42:19;;;;;;;20.00;15.10;;;15.30;99.90;;;;;;5050172;28;20447;-65
2021/10/18 13:44:46;;;;;;;15.53;13.93;;;15.10;99.90;;;;;;5050548;28;20460;-66
2021/10/18 13:47:13;;;;;;;17.10;15.27;;;15.20;99.90;;;;;;5050240;28;20482;-65